createdAt,value
2018-12-31T00:01:50.703Z,5.71
2018-12-31T00:06:56.387Z,5.73
2018-12-31T00:12:01.857Z,5.73
2018-12-31T00:17:07.389Z,5.80
2018-12-31T00:22:13.543Z,5.71
2018-12-31T00:27:19.083Z,5.69
2018-12-31T00:32:24.268Z,5.76
2018-12-31T00:37:30.427Z,5.67
2018-12-31T00:42:36.501Z,5.77
2018-12-31T00:47:43.700Z,5.68
2018-12-31T00:52:48.877Z,5.64
2018-12-31T00:57:54.924Z,5.69
2018-12-31T01:03:00.077Z,5.66
2018-12-31T01:08:05.241Z,5.74
2018-12-31T01:13:12.332Z,5.70
2018-12-31T01:18:17.755Z,5.81
2018-12-31T01:23:23.303Z,5.77
2018-12-31T01:28:28.953Z,5.81
2018-12-31T01:33:35.736Z,5.66
2018-12-31T01:38:40.937Z,5.81
2018-12-31T01:43:46.135Z,5.72
2018-12-31T01:48:51.565Z,5.62
2018-12-31T01:53:56.801Z,5.70
2018-12-31T01:59:02.080Z,5.70
2018-12-31T02:04:07.593Z,5.65
2018-12-31T02:09:13.217Z,5.54
2018-12-31T02:14:18.488Z,5.51
2018-12-31T02:19:23.999Z,5.46
2018-12-31T02:24:29.181Z,5.39
2018-12-31T02:29:34.974Z,5.44
2018-12-31T02:34:40.566Z,5.38
2018-12-31T02:39:45.741Z,5.36
2018-12-31T02:44:51.325Z,5.36
2018-12-31T02:49:57.442Z,5.32
2018-12-31T02:55:02.631Z,5.33
2018-12-31T03:00:08.063Z,5.37
2018-12-31T03:05:13.240Z,5.36
2018-12-31T03:10:19.800Z,5.37
2018-12-31T03:15:24.972Z,5.38
2018-12-31T03:20:30.214Z,5.40
2018-12-31T03:25:35.688Z,5.39
2018-12-31T03:30:40.861Z,5.40
2018-12-31T03:35:46.860Z,5.68
2018-12-31T03:40:52.662Z,5.79
2018-12-31T03:45:57.832Z,5.72
2018-12-31T03:51:04.121Z,5.64
2018-12-31T03:56:09.655Z,5.81
2018-12-31T04:01:15.241Z,5.86
2018-12-31T04:06:20.551Z,5.81
2018-12-31T04:11:25.715Z,5.77
2018-12-31T04:16:31.160Z,5.83
2018-12-31T04:21:37.844Z,5.95
2018-12-31T04:26:42.958Z,5.96
2018-12-31T04:31:48.296Z,5.85
2018-12-31T04:36:54.595Z,5.99
2018-12-31T04:41:59.774Z,5.89
2018-12-31T04:47:05.231Z,5.91
2018-12-31T04:52:10.525Z,5.98
2018-12-31T04:57:19.537Z,5.90
2018-12-31T05:02:25.355Z,5.85
2018-12-31T05:07:30.487Z,5.97
2018-12-31T05:12:35.604Z,5.90
2018-12-31T05:17:41.549Z,5.79
2018-12-31T05:22:46.914Z,5.76
2018-12-31T05:27:52.088Z,5.91
2018-12-31T05:32:58.296Z,5.82
2018-12-31T05:38:04.200Z,5.94
2018-12-31T05:43:11.127Z,5.87
2018-12-31T05:48:16.686Z,5.90
2018-12-31T05:53:22.315Z,5.95
2018-12-31T05:58:28.507Z,5.98
2018-12-31T06:03:33.692Z,5.97
2018-12-31T06:08:38.905Z,6.15
2018-12-31T06:13:44.087Z,6.07
2018-12-31T06:18:49.474Z,5.91
2018-12-31T06:23:56.553Z,5.99
2018-12-31T06:29:01.911Z,6.12
2018-12-31T06:34:07.636Z,5.91
2018-12-31T06:39:13.257Z,5.86
2018-12-31T06:44:18.777Z,5.77
2018-12-31T06:49:24.322Z,5.66
2018-12-31T06:54:29.895Z,5.59
2018-12-31T06:59:35.082Z,5.60
2018-12-31T07:04:40.822Z,5.59
2018-12-31T07:09:46.385Z,5.59
2018-12-31T07:14:51.641Z,5.65
2018-12-31T07:19:57.752Z,5.79
2018-12-31T07:25:02.977Z,5.65
2018-12-31T07:30:08.614Z,5.57
2018-12-31T07:35:14.416Z,5.60
2018-12-31T07:40:19.693Z,5.62
2018-12-31T07:45:25.785Z,5.56
2018-12-31T07:50:31.597Z,5.55
2018-12-31T07:55:36.782Z,5.51
2018-12-31T08:00:42.539Z,5.50
2018-12-31T08:05:47.727Z,5.50
2018-12-31T08:10:54.595Z,5.47
2018-12-31T08:15:59.835Z,5.48
2018-12-31T08:21:05.013Z,5.44
2018-12-31T08:26:10.204Z,5.39
2018-12-31T08:31:15.754Z,5.40
2018-12-31T08:36:21.837Z,5.43
2018-12-31T08:41:27.496Z,5.40
2018-12-31T08:46:33.842Z,5.43
2018-12-31T08:51:39.513Z,5.45
2018-12-31T08:56:45.111Z,5.46
2018-12-31T09:01:50.294Z,5.51
2018-12-31T09:06:56.535Z,5.56
2018-12-31T09:12:01.798Z,5.61
2018-12-31T09:17:07.211Z,5.64
2018-12-31T09:22:12.993Z,5.66
2018-12-31T09:27:19.151Z,5.71
2018-12-31T09:32:24.327Z,5.71
2018-12-31T09:37:29.887Z,5.70
2018-12-31T09:42:35.387Z,5.71
2018-12-31T09:47:40.578Z,5.68
2018-12-31T09:52:46.631Z,5.70
2018-12-31T09:57:52.107Z,5.69
2018-12-31T10:02:57.178Z,5.69
2018-12-31T10:08:03.501Z,5.69
2018-12-31T10:13:09.230Z,5.73
2018-12-31T10:18:15.366Z,5.72
2018-12-31T10:23:21.120Z,5.75
2018-12-31T10:28:28.301Z,5.75
2018-12-31T10:33:33.567Z,5.78
2018-12-31T10:38:38.774Z,5.79
2018-12-31T10:43:44.402Z,5.82
2018-12-31T10:48:50.517Z,5.90
2018-12-31T10:53:55.759Z,6.04
2018-12-31T10:59:01.330Z,6.08
2018-12-31T11:04:06.511Z,6.09
2018-12-31T11:09:11.999Z,6.10
2018-12-31T11:14:17.902Z,6.14
2018-12-31T11:19:24.267Z,6.23
2018-12-31T11:24:29.878Z,6.20
2018-12-31T11:29:35.346Z,6.30
2018-12-31T11:34:40.665Z,6.45
2018-12-31T11:39:46.809Z,6.49
2018-12-31T11:44:51.980Z,6.57
2018-12-31T11:49:57.567Z,6.61
2018-12-31T11:55:03.544Z,6.65
2018-12-31T12:00:10.758Z,6.68
2018-12-31T12:05:16.507Z,6.69
2018-12-31T12:10:22.227Z,6.74
2018-12-31T12:15:27.444Z,6.73
2018-12-31T12:20:32.623Z,6.75
2018-12-31T12:25:37.801Z,6.77
2018-12-31T12:30:43.106Z,6.76
2018-12-31T12:35:48.180Z,6.81
2018-12-31T12:40:54.661Z,6.87
2018-12-31T12:45:59.767Z,6.91
2018-12-31T12:51:05.218Z,6.97
2018-12-31T12:56:10.862Z,6.98
2018-12-31T13:01:16.322Z,7.07
2018-12-31T13:06:22.580Z,7.05
2018-12-31T13:11:28.291Z,7.04
2018-12-31T13:16:33.840Z,7.12
2018-12-31T13:21:40.428Z,7.12
2018-12-31T13:26:46.293Z,7.06
2018-12-31T13:31:52.428Z,7.07
2018-12-31T13:36:58.239Z,6.99
2018-12-31T13:42:03.914Z,6.99
2018-12-31T13:47:09.475Z,7.04
2018-12-31T13:52:14.789Z,6.94
2018-12-31T13:57:19.960Z,6.82
2018-12-31T14:02:25.182Z,6.80
2018-12-31T14:07:31.364Z,6.71
2018-12-31T14:12:36.970Z,6.67
2018-12-31T14:17:43.662Z,6.62
2018-12-31T14:22:49.318Z,6.57
2018-12-31T14:27:54.480Z,6.53
2018-12-31T14:32:59.677Z,6.47
2018-12-31T14:38:06.628Z,6.42
2018-12-31T14:43:14.063Z,6.43
2018-12-31T14:48:19.990Z,6.50
2018-12-31T14:53:25.425Z,6.43
2018-12-31T14:58:31.660Z,6.35
2018-12-31T15:03:37.181Z,6.35
2018-12-31T15:08:42.883Z,6.31
2018-12-31T15:13:48.417Z,6.32
2018-12-31T15:18:55.111Z,6.32
2018-12-31T15:24:01.129Z,6.33
2018-12-31T15:29:06.452Z,6.32
2018-12-31T15:34:11.651Z,6.32
2018-12-31T15:39:16.862Z,6.31
2018-12-31T15:44:22.056Z,6.27
2018-12-31T15:49:27.250Z,6.30
2018-12-31T15:54:32.429Z,6.27
2018-12-31T15:59:37.969Z,6.29
2018-12-31T16:04:43.170Z,6.27
2018-12-31T16:09:48.282Z,6.27
2018-12-31T16:14:53.455Z,6.27
2018-12-31T16:19:59.005Z,6.29
2018-12-31T16:25:04.338Z,6.31
2018-12-31T16:30:11.055Z,6.32
2018-12-31T16:35:16.233Z,6.35
2018-12-31T16:40:22.450Z,6.36
2018-12-31T16:45:28.332Z,6.40
2018-12-31T16:50:33.509Z,6.40
2018-12-31T16:55:39.003Z,6.41
2018-12-31T17:00:44.311Z,6.44
2018-12-31T17:05:50.251Z,6.43
2018-12-31T17:10:55.550Z,6.38
2018-12-31T17:16:02.301Z,6.42
2018-12-31T17:21:07.601Z,6.42
2018-12-31T17:26:12.855Z,6.46
2018-12-31T17:31:18.443Z,6.48
2018-12-31T17:36:23.698Z,6.46
2018-12-31T17:41:29.125Z,6.42
2018-12-31T17:46:34.308Z,6.41
2018-12-31T17:51:40.040Z,6.42
2018-12-31T17:56:45.408Z,6.43
2018-12-31T18:01:50.782Z,6.42
2018-12-31T18:06:56.870Z,6.44
2018-12-31T18:12:02.070Z,6.40
2018-12-31T18:17:07.256Z,6.41
2018-12-31T18:22:12.499Z,6.43
2018-12-31T18:27:17.946Z,6.46
2018-12-31T18:32:23.163Z,6.43
2018-12-31T18:37:28.751Z,6.40
2018-12-31T18:42:33.955Z,6.43
2018-12-31T18:47:39.470Z,6.46
2018-12-31T18:52:44.687Z,6.48
2018-12-31T18:57:49.888Z,6.50
2018-12-31T19:02:55.073Z,6.56
2018-12-31T19:08:00.260Z,6.55
2018-12-31T19:13:06.309Z,6.60
2018-12-31T19:18:12.279Z,6.63
2018-12-31T19:23:17.462Z,6.61
2018-12-31T19:28:22.735Z,6.62
2018-12-31T19:33:28.038Z,6.61
2018-12-31T19:38:33.247Z,6.63
2018-12-31T19:43:38.419Z,6.63
2018-12-31T19:48:43.595Z,6.62
2018-12-31T19:53:49.288Z,6.62
2018-12-31T19:58:55.885Z,6.62
2018-12-31T20:04:01.099Z,6.62
2018-12-31T20:09:07.219Z,6.63
2018-12-31T20:14:12.983Z,6.66
2018-12-31T20:19:18.384Z,6.70
2018-12-31T20:24:24.170Z,6.71
2018-12-31T20:29:30.366Z,6.71
2018-12-31T20:34:35.822Z,6.68
2018-12-31T20:39:41.307Z,6.65
2018-12-31T20:44:46.495Z,6.80
2018-12-31T20:49:51.791Z,6.75
2018-12-31T20:54:58.265Z,6.69
2018-12-31T21:00:03.437Z,6.60
2018-12-31T21:05:11.478Z,6.51
2018-12-31T21:10:17.158Z,6.44
2018-12-31T21:15:23.415Z,6.43
2018-12-31T21:20:28.605Z,6.44
2018-12-31T21:25:34.321Z,6.39
2018-12-31T21:30:39.674Z,6.37
2018-12-31T21:35:45.541Z,6.39
2018-12-31T21:40:51.063Z,6.45
2018-12-31T21:45:56.435Z,6.46
2018-12-31T21:51:02.297Z,6.43
2018-12-31T21:56:07.824Z,6.39
2018-12-31T22:01:14.141Z,6.41
2018-12-31T22:06:19.350Z,6.42
2018-12-31T22:11:25.619Z,6.49
2018-12-31T22:16:31.379Z,6.58
2018-12-31T22:21:36.566Z,6.70
2018-12-31T22:26:42.407Z,6.70
2018-12-31T22:31:48.981Z,6.69
2018-12-31T22:36:55.303Z,6.66
2018-12-31T22:42:00.828Z,6.65
2018-12-31T22:47:06.321Z,6.77
2018-12-31T22:52:11.495Z,6.92
2018-12-31T22:57:16.575Z,6.84
2018-12-31T23:02:22.067Z,6.76
2018-12-31T23:07:27.527Z,6.74
2018-12-31T23:12:32.626Z,6.67
2018-12-31T23:17:38.831Z,6.68
2018-12-31T23:22:44.514Z,6.70
2018-12-31T23:27:50.292Z,6.70
2018-12-31T23:32:55.404Z,6.67
2018-12-31T23:38:00.947Z,6.59
2018-12-31T23:43:06.851Z,6.62
2018-12-31T23:48:14.697Z,6.66
2018-12-31T23:53:19.804Z,6.58
2018-12-31T23:58:25.463Z,6.62
